Terminal Aerodrome Forecast
Issued by NWS Lake Charles, LA

Home | Current Version | Previous Version | Text Only | Print | Product List | Glossary On
Versions: 1 2 3 4 5 6 7 8 9 10 11 12
000
FTUS44 KLCH 291727
TAFLCH
TAF
KLCH 291727Z 2918/3018 34005KT P6SM FEW035
     FM292000 21006KT P6SM VCTS SCT040CB
     FM300100 VRB03KT P6SM SKC
     FM301500 33006KT P6SM FEW030=

USA.gov is the U.S. government's official web portal to all federal, state and local government web resources and services.